sensor_id;sensor_type;location;lat;lon;timestamp;temperature;humidity
8711;DHT22;4392;47.400;8.062;2022-10-16T00:01:35;18.90;99.90
8711;DHT22;4392;47.400;8.062;2022-10-16T00:04:06;18.90;99.90
8711;DHT22;4392;47.400;8.062;2022-10-16T00:06:31;18.90;99.90
8711;DHT22;4392;47.400;8.062;2022-10-16T00:08:57;18.90;99.90
8711;DHT22;4392;47.400;8.062;2022-10-16T00:11:36;18.80;99.90
8711;DHT22;4392;47.400;8.062;2022-10-16T00:14:05;18.80;99.90
8711;DHT22;4392;47.400;8.062;2022-10-16T00:16:31;18.80;99.90
8711;DHT22;4392;47.400;8.062;2022-10-16T00:18:57;18.80;99.90
8711;DHT22;4392;47.400;8.062;2022-10-16T00:21:28;18.80;99.90
8711;DHT22;4392;47.400;8.062;2022-10-16T00:24:01;18.80;99.90
8711;DHT22;4392;47.400;8.062;2022-10-16T00:26:29;18.80;99.90
8711;DHT22;4392;47.400;8.062;2022-10-16T00:28:55;18.90;99.90
8711;DHT22;4392;47.400;8.062;2022-10-16T00:31:23;18.90;99.90
8711;DHT22;4392;47.400;8.062;2022-10-16T00:33:51;18.80;99.90
8711;DHT22;4392;47.400;8.062;2022-10-16T00:36:21;18.90;99.90
8711;DHT22;4392;47.400;8.062;2022-10-16T00:38:49;18.90;99.90
8711;DHT22;4392;47.400;8.062;2022-10-16T00:41:19;18.80;99.90
8711;DHT22;4392;47.400;8.062;2022-10-16T00:43:46;18.80;99.90
8711;DHT22;4392;47.400;8.062;2022-10-16T00:48:59;18.80;99.90
8711;DHT22;4392;47.400;8.062;2022-10-16T00:51:32;18.80;99.90
8711;DHT22;4392;47.400;8.062;2022-10-16T00:54:23;18.80;99.90
8711;DHT22;4392;47.400;8.062;2022-10-16T00:56:54;18.90;99.90
8711;DHT22;4392;47.400;8.062;2022-10-16T00:59:22;18.80;99.90
8711;DHT22;4392;47.400;8.062;2022-10-16T01:01:51;18.90;99.90
8711;DHT22;4392;47.400;8.062;2022-10-16T01:04:17;18.80;99.90
8711;DHT22;4392;47.400;8.062;2022-10-16T01:06:56;18.90;99.90
8711;DHT22;4392;47.400;8.062;2022-10-16T01:09:34;18.80;99.90
8711;DHT22;4392;47.400;8.062;2022-10-16T01:12:10;18.90;99.90
8711;DHT22;4392;47.400;8.062;2022-10-16T01:14:42;18.90;99.90
8711;DHT22;4392;47.400;8.062;2022-10-16T01:20:36;18.80;99.90
8711;DHT22;4392;47.400;8.062;2022-10-16T01:26:27;18.80;99.90
8711;DHT22;4392;47.400;8.062;2022-10-16T01:31:44;18.80;99.90
8711;DHT22;4392;47.400;8.062;2022-10-16T01:34:25;18.80;99.90
8711;DHT22;4392;47.400;8.062;2022-10-16T01:36:57;18.80;99.90
8711;DHT22;4392;47.400;8.062;2022-10-16T01:39:32;18.80;99.90
8711;DHT22;4392;47.400;8.062;2022-10-16T01:42:12;18.70;99.90
8711;DHT22;4392;47.400;8.062;2022-10-16T01:44:40;18.40;99.90
8711;DHT22;4392;47.400;8.062;2022-10-16T01:47:10;18.40;99.90
8711;DHT22;4392;47.400;8.062;2022-10-16T01:49:38;18.30;99.90
8711;DHT22;4392;47.400;8.062;2022-10-16T01:52:09;18.20;99.90
8711;DHT22;4392;47.400;8.062;2022-10-16T01:54:39;18.20;99.90
8711;DHT22;4392;47.400;8.062;2022-10-16T01:57:07;18.20;99.90
8711;DHT22;4392;47.400;8.062;2022-10-16T01:59:37;18.20;99.90
8711;DHT22;4392;47.400;8.062;2022-10-16T02:02:23;18.20;99.90
8711;DHT22;4392;47.400;8.062;2022-10-16T02:04:57;18.10;99.90
8711;DHT22;4392;47.400;8.062;2022-10-16T02:07:24;18.10;99.90
8711;DHT22;4392;47.400;8.062;2022-10-16T02:09:53;18.00;99.90
8711;DHT22;4392;47.400;8.062;2022-10-16T02:12:31;18.00;99.90
8711;DHT22;4392;47.400;8.062;2022-10-16T02:14:57;18.00;99.90
8711;DHT22;4392;47.400;8.062;2022-10-16T02:17:24;17.90;99.90
8711;DHT22;4392;47.400;8.062;2022-10-16T02:19:52;17.90;99.90
8711;DHT22;4392;47.400;8.062;2022-10-16T02:25:38;17.80;99.90
8711;DHT22;4392;47.400;8.062;2022-10-16T02:28:29;17.90;99.90
8711;DHT22;4392;47.400;8.062;2022-10-16T02:31:01;18.20;99.90
8711;DHT22;4392;47.400;8.062;2022-10-16T02:33:29;18.30;99.90
8711;DHT22;4392;47.400;8.062;2022-10-16T02:35:57;18.30;99.90
8711;DHT22;4392;47.400;8.062;2022-10-16T02:38:23;18.30;99.90
8711;DHT22;4392;47.400;8.062;2022-10-16T02:40:50;18.40;99.90
8711;DHT22;4392;47.400;8.062;2022-10-16T02:43:16;18.40;99.90
8711;DHT22;4392;47.400;8.062;2022-10-16T02:45:42;18.40;99.90
8711;DHT22;4392;47.400;8.062;2022-10-16T02:48:08;18.40;99.90
8711;DHT22;4392;47.400;8.062;2022-10-16T02:50:34;18.40;99.90
8711;DHT22;4392;47.400;8.062;2022-10-16T02:53:00;18.40;99.90
8711;DHT22;4392;47.400;8.062;2022-10-16T02:55:28;18.40;99.90
8711;DHT22;4392;47.400;8.062;2022-10-16T02:57:54;18.40;99.90
8711;DHT22;4392;47.400;8.062;2022-10-16T03:00:29;18.40;99.90
8711;DHT22;4392;47.400;8.062;2022-10-16T03:02:55;18.40;99.90
8711;DHT22;4392;47.400;8.062;2022-10-16T03:05:21;18.40;99.90
8711;DHT22;4392;47.400;8.062;2022-10-16T03:07:47;18.50;99.90
8711;DHT22;4392;47.400;8.062;2022-10-16T03:10:13;18.50;99.90
8711;DHT22;4392;47.400;8.062;2022-10-16T03:12:38;18.50;99.90
8711;DHT22;4392;47.400;8.062;2022-10-16T03:15:04;18.60;99.90
8711;DHT22;4392;47.400;8.062;2022-10-16T03:17:31;18.50;99.90
8711;DHT22;4392;47.400;8.062;2022-10-16T03:19:57;18.50;99.90
8711;DHT22;4392;47.400;8.062;2022-10-16T03:22:23;18.50;99.90
8711;DHT22;4392;47.400;8.062;2022-10-16T03:24:49;18.50;99.90
8711;DHT22;4392;47.400;8.062;2022-10-16T03:27:15;18.50;99.90
8711;DHT22;4392;47.400;8.062;2022-10-16T03:29:40;18.50;99.90
8711;DHT22;4392;47.400;8.062;2022-10-16T03:32:06;18.60;99.90
8711;DHT22;4392;47.400;8.062;2022-10-16T03:34:35;18.50;99.90
8711;DHT22;4392;47.400;8.062;2022-10-16T03:37:00;18.60;99.90
8711;DHT22;4392;47.400;8.062;2022-10-16T03:39:26;18.60;99.90
8711;DHT22;4392;47.400;8.062;2022-10-16T03:41:52;18.50;99.90
8711;DHT22;4392;47.400;8.062;2022-10-16T03:44:18;18.50;99.90
8711;DHT22;4392;47.400;8.062;2022-10-16T03:46:44;18.50;99.90
8711;DHT22;4392;47.400;8.062;2022-10-16T03:49:09;18.60;99.90
8711;DHT22;4392;47.400;8.062;2022-10-16T03:51:35;18.60;99.90
8711;DHT22;4392;47.400;8.062;2022-10-16T03:54:19;18.60;99.90
8711;DHT22;4392;47.400;8.062;2022-10-16T03:56:48;18.60;99.90
8711;DHT22;4392;47.400;8.062;2022-10-16T03:59:14;18.60;99.90
8711;DHT22;4392;47.400;8.062;2022-10-16T04:01:43;18.60;99.90
8711;DHT22;4392;47.400;8.062;2022-10-16T04:04:12;18.60;99.90
8711;DHT22;4392;47.400;8.062;2022-10-16T04:06:37;18.60;99.90
8711;DHT22;4392;47.400;8.062;2022-10-16T04:09:03;18.60;99.90
8711;DHT22;4392;47.400;8.062;2022-10-16T04:11:29;18.60;99.90
8711;DHT22;4392;47.400;8.062;2022-10-16T04:13:55;18.50;99.90
8711;DHT22;4392;47.400;8.062;2022-10-16T04:16:21;18.60;99.90
8711;DHT22;4392;47.400;8.062;2022-10-16T04:18:47;18.50;99.90
8711;DHT22;4392;47.400;8.062;2022-10-16T04:21:12;18.50;99.90
8711;DHT22;4392;47.400;8.062;2022-10-16T04:23:38;18.50;99.90
8711;DHT22;4392;47.400;8.062;2022-10-16T04:26:04;18.50;99.90
8711;DHT22;4392;47.400;8.062;2022-10-16T04:28:30;18.50;99.90
8711;DHT22;4392;47.400;8.062;2022-10-16T04:30:58;18.50;99.90
8711;DHT22;4392;47.400;8.062;2022-10-16T04:33:26;18.50;99.90
8711;DHT22;4392;47.400;8.062;2022-10-16T04:35:59;18.50;99.90
8711;DHT22;4392;47.400;8.062;2022-10-16T04:38:26;18.40;99.90
8711;DHT22;4392;47.400;8.062;2022-10-16T04:40:52;18.40;99.90
8711;DHT22;4392;47.400;8.062;2022-10-16T04:43:18;18.20;99.90
8711;DHT22;4392;47.400;8.062;2022-10-16T04:45:44;18.10;99.90
8711;DHT22;4392;47.400;8.062;2022-10-16T04:48:10;18.10;99.90
8711;DHT22;4392;47.400;8.062;2022-10-16T04:50:36;18.00;99.90
8711;DHT22;4392;47.400;8.062;2022-10-16T04:53:02;18.10;99.90
8711;DHT22;4392;47.400;8.062;2022-10-16T04:55:28;18.20;99.90
8711;DHT22;4392;47.400;8.062;2022-10-16T04:57:56;18.20;99.90
8711;DHT22;4392;47.400;8.062;2022-10-16T05:00:30;18.20;99.90
8711;DHT22;4392;47.400;8.062;2022-10-16T05:02:56;18.20;99.90
8711;DHT22;4392;47.400;8.062;2022-10-16T05:05:22;18.10;99.90
8711;DHT22;4392;47.400;8.062;2022-10-16T05:07:48;18.00;99.90
8711;DHT22;4392;47.400;8.062;2022-10-16T05:10:15;18.00;99.90
8711;DHT22;4392;47.400;8.062;2022-10-16T05:12:41;18.10;99.90
8711;DHT22;4392;47.400;8.062;2022-10-16T05:15:07;18.10;99.90
8711;DHT22;4392;47.400;8.062;2022-10-16T05:17:33;18.20;99.90
8711;DHT22;4392;47.400;8.062;2022-10-16T05:19:59;17.90;99.90
8711;DHT22;4392;47.400;8.062;2022-10-16T05:22:25;17.70;99.90
8711;DHT22;4392;47.400;8.062;2022-10-16T05:24:53;17.50;99.90
8711;DHT22;4392;47.400;8.062;2022-10-16T05:27:19;17.40;99.90
8711;DHT22;4392;47.400;8.062;2022-10-16T05:29:48;17.40;99.90
8711;DHT22;4392;47.400;8.062;2022-10-16T05:32:15;17.30;99.90
8711;DHT22;4392;47.400;8.062;2022-10-16T05:34:41;17.20;99.90
8711;DHT22;4392;47.400;8.062;2022-10-16T05:37:07;17.10;99.90
8711;DHT22;4392;47.400;8.062;2022-10-16T05:39:35;17.00;99.90
8711;DHT22;4392;47.400;8.062;2022-10-16T05:42:02;17.00;99.90
8711;DHT22;4392;47.400;8.062;2022-10-16T05:44:28;17.00;99.90
8711;DHT22;4392;47.400;8.062;2022-10-16T05:46:54;16.90;99.90
8711;DHT22;4392;47.400;8.062;2022-10-16T05:49:20;16.90;99.90
8711;DHT22;4392;47.400;8.062;2022-10-16T05:51:48;16.90;99.90
8711;DHT22;4392;47.400;8.062;2022-10-16T05:54:17;16.90;99.90
8711;DHT22;4392;47.400;8.062;2022-10-16T05:56:43;16.90;99.90
8711;DHT22;4392;47.400;8.062;2022-10-16T05:59:09;17.00;99.90
8711;DHT22;4392;47.400;8.062;2022-10-16T06:01:44;17.20;99.90
8711;DHT22;4392;47.400;8.062;2022-10-16T06:04:10;17.50;99.90
8711;DHT22;4392;47.400;8.062;2022-10-16T06:06:35;17.70;99.90
8711;DHT22;4392;47.400;8.062;2022-10-16T06:09:05;17.80;99.90
8711;DHT22;4392;47.400;8.062;2022-10-16T06:11:32;17.80;99.90
8711;DHT22;4392;47.400;8.062;2022-10-16T06:14:01;17.80;99.90
8711;DHT22;4392;47.400;8.062;2022-10-16T06:16:29;17.90;99.90
8711;DHT22;4392;47.400;8.062;2022-10-16T06:18:57;18.00;99.90
8711;DHT22;4392;47.400;8.062;2022-10-16T06:21:26;18.00;99.90
8711;DHT22;4392;47.400;8.062;2022-10-16T06:23:52;18.00;99.90
8711;DHT22;4392;47.400;8.062;2022-10-16T06:26:20;18.00;99.90
8711;DHT22;4392;47.400;8.062;2022-10-16T06:28:48;18.00;99.90
8711;DHT22;4392;47.400;8.062;2022-10-16T06:31:14;18.00;99.90
8711;DHT22;4392;47.400;8.062;2022-10-16T06:33:40;18.10;99.90
8711;DHT22;4392;47.400;8.062;2022-10-16T06:36:12;18.10;99.90
8711;DHT22;4392;47.400;8.062;2022-10-16T06:38:38;18.10;99.90
8711;DHT22;4392;47.400;8.062;2022-10-16T06:41:05;18.20;99.90
8711;DHT22;4392;47.400;8.062;2022-10-16T06:43:32;18.20;99.90
8711;DHT22;4392;47.400;8.062;2022-10-16T06:46:01;18.20;99.90
8711;DHT22;4392;47.400;8.062;2022-10-16T06:48:28;18.20;99.90
8711;DHT22;4392;47.400;8.062;2022-10-16T06:51:01;18.20;99.90
8711;DHT22;4392;47.400;8.062;2022-10-16T06:53:30;18.20;99.90
8711;DHT22;4392;47.400;8.062;2022-10-16T06:55:56;18.20;99.90
8711;DHT22;4392;47.400;8.062;2022-10-16T06:58:23;18.20;99.90
8711;DHT22;4392;47.400;8.062;2022-10-16T07:00:57;18.30;99.90
8711;DHT22;4392;47.400;8.062;2022-10-16T07:03:23;18.20;99.90
8711;DHT22;4392;47.400;8.062;2022-10-16T07:05:48;18.30;99.90
8711;DHT22;4392;47.400;8.062;2022-10-16T07:08:14;18.30;99.90
8711;DHT22;4392;47.400;8.062;2022-10-16T07:10:40;18.30;99.90
8711;DHT22;4392;47.400;8.062;2022-10-16T07:13:09;18.30;99.90
8711;DHT22;4392;47.400;8.062;2022-10-16T07:15:39;18.20;99.90
8711;DHT22;4392;47.400;8.062;2022-10-16T07:18:05;18.20;99.90
8711;DHT22;4392;47.400;8.062;2022-10-16T07:20:33;18.20;99.90
8711;DHT22;4392;47.400;8.062;2022-10-16T07:23:02;18.30;99.90
8711;DHT22;4392;47.400;8.062;2022-10-16T07:25:29;18.30;99.90
8711;DHT22;4392;47.400;8.062;2022-10-16T07:27:56;18.20;99.90
8711;DHT22;4392;47.400;8.062;2022-10-16T07:30:23;18.30;99.90
8711;DHT22;4392;47.400;8.062;2022-10-16T07:32:49;18.30;99.90
8711;DHT22;4392;47.400;8.062;2022-10-16T07:35:15;18.30;99.90
8711;DHT22;4392;47.400;8.062;2022-10-16T07:37:47;18.30;99.90
8711;DHT22;4392;47.400;8.062;2022-10-16T07:40:13;18.30;99.90
8711;DHT22;4392;47.400;8.062;2022-10-16T07:42:39;18.30;99.90
8711;DHT22;4392;47.400;8.062;2022-10-16T07:45:06;18.40;99.90
8711;DHT22;4392;47.400;8.062;2022-10-16T07:47:32;18.40;99.90
8711;DHT22;4392;47.400;8.062;2022-10-16T07:49:58;18.40;99.90
8711;DHT22;4392;47.400;8.062;2022-10-16T07:52:24;18.40;99.90
8711;DHT22;4392;47.400;8.062;2022-10-16T07:54:50;18.30;99.90
8711;DHT22;4392;47.400;8.062;2022-10-16T07:57:16;18.30;99.90
8711;DHT22;4392;47.400;8.062;2022-10-16T07:59:45;18.30;99.90
8711;DHT22;4392;47.400;8.062;2022-10-16T08:02:11;18.30;99.90
8711;DHT22;4392;47.400;8.062;2022-10-16T08:04:37;18.30;99.90
8711;DHT22;4392;47.400;8.062;2022-10-16T08:07:03;18.30;99.90
8711;DHT22;4392;47.400;8.062;2022-10-16T08:09:29;18.30;99.90
8711;DHT22;4392;47.400;8.062;2022-10-16T08:11:55;18.30;99.90
8711;DHT22;4392;47.400;8.062;2022-10-16T08:14:20;18.30;99.90
8711;DHT22;4392;47.400;8.062;2022-10-16T08:16:47;18.30;99.90
8711;DHT22;4392;47.400;8.062;2022-10-16T08:19:13;18.30;99.90
8711;DHT22;4392;47.400;8.062;2022-10-16T08:21:39;18.40;99.90
8711;DHT22;4392;47.400;8.062;2022-10-16T08:24:05;18.40;99.90
8711;DHT22;4392;47.400;8.062;2022-10-16T08:26:30;18.40;99.90
8711;DHT22;4392;47.400;8.062;2022-10-16T08:28:56;18.40;99.90
8711;DHT22;4392;47.400;8.062;2022-10-16T08:31:22;18.40;99.90
8711;DHT22;4392;47.400;8.062;2022-10-16T08:33:49;18.40;99.90
8711;DHT22;4392;47.400;8.062;2022-10-16T08:36:16;18.30;99.90
8711;DHT22;4392;47.400;8.062;2022-10-16T08:38:42;18.40;99.90
8711;DHT22;4392;47.400;8.062;2022-10-16T08:49:31;18.30;99.90
8711;DHT22;4392;47.400;8.062;2022-10-16T08:51:57;18.30;99.90
8711;DHT22;4392;47.400;8.062;2022-10-16T08:57:00;18.20;99.90
8711;DHT22;4392;47.400;8.062;2022-10-16T08:59:30;18.10;99.90
8711;DHT22;4392;47.400;8.062;2022-10-16T09:01:55;18.00;99.90
8711;DHT22;4392;47.400;8.062;2022-10-16T09:13:02;17.90;99.90
8711;DHT22;4392;47.400;8.062;2022-10-16T09:18:28;18.00;99.90
8711;DHT22;4392;47.400;8.062;2022-10-16T09:21:05;18.10;99.90
8711;DHT22;4392;47.400;8.062;2022-10-16T09:23:37;18.10;99.90
8711;DHT22;4392;47.400;8.062;2022-10-16T09:26:04;18.10;99.90
8711;DHT22;4392;47.400;8.062;2022-10-16T09:28:31;18.20;99.90
8711;DHT22;4392;47.400;8.062;2022-10-16T09:30:57;18.20;99.90
8711;DHT22;4392;47.400;8.062;2022-10-16T09:33:28;18.30;99.90
8711;DHT22;4392;47.400;8.062;2022-10-16T09:35:56;18.30;99.90
8711;DHT22;4392;47.400;8.062;2022-10-16T09:38:25;18.40;99.90
8711;DHT22;4392;47.400;8.062;2022-10-16T09:40:52;18.40;99.90
8711;DHT22;4392;47.400;8.062;2022-10-16T09:46:00;18.20;99.90
8711;DHT22;4392;47.400;8.062;2022-10-16T09:48:50;18.20;99.90
8711;DHT22;4392;47.400;8.062;2022-10-16T09:51:21;18.30;99.90
8711;DHT22;4392;47.400;8.062;2022-10-16T09:53:48;18.30;99.90
8711;DHT22;4392;47.400;8.062;2022-10-16T09:56:23;18.30;99.90
8711;DHT22;4392;47.400;8.062;2022-10-16T09:58:56;18.30;99.90
8711;DHT22;4392;47.400;8.062;2022-10-16T10:01:36;18.30;99.90
8711;DHT22;4392;47.400;8.062;2022-10-16T10:04:03;18.30;99.90
8711;DHT22;4392;47.400;8.062;2022-10-16T10:06:50;18.20;99.90
8711;DHT22;4392;47.400;8.062;2022-10-16T10:14:37;18.40;99.90
8711;DHT22;4392;47.400;8.062;2022-10-16T10:19:59;18.40;99.90
8711;DHT22;4392;47.400;8.062;2022-10-16T10:22:43;18.30;99.90
8711;DHT22;4392;47.400;8.062;2022-10-16T10:25:18;18.30;99.90
8711;DHT22;4392;47.400;8.062;2022-10-16T10:47:07;18.40;99.90
8711;DHT22;4392;47.400;8.062;2022-10-16T10:58:58;18.30;99.90
8711;DHT22;4392;47.400;8.062;2022-10-16T11:04:34;18.20;99.90
8711;DHT22;4392;47.400;8.062;2022-10-16T11:07:09;18.30;99.90
8711;DHT22;4392;47.400;8.062;2022-10-16T11:10:12;18.40;99.90
8711;DHT22;4392;47.400;8.062;2022-10-16T11:12:45;18.40;99.90
8711;DHT22;4392;47.400;8.062;2022-10-16T11:20:26;18.60;99.90
8711;DHT22;4392;47.400;8.062;2022-10-16T11:25:52;18.70;99.90
8711;DHT22;4392;47.400;8.062;2022-10-16T11:31:08;18.60;99.90
8711;DHT22;4392;47.400;8.062;2022-10-16T11:37:14;18.70;99.90
8711;DHT22;4392;47.400;8.062;2022-10-16T11:39:43;18.70;99.90
8711;DHT22;4392;47.400;8.062;2022-10-16T11:42:22;18.70;99.90
8711;DHT22;4392;47.400;8.062;2022-10-16T11:47:50;18.80;99.90
8711;DHT22;4392;47.400;8.062;2022-10-16T11:50:43;18.80;99.90
8711;DHT22;4392;47.400;8.062;2022-10-16T11:53:53;18.80;99.90
8711;DHT22;4392;47.400;8.062;2022-10-16T11:56:22;18.80;99.90
8711;DHT22;4392;47.400;8.062;2022-10-16T11:59:14;18.80;99.90
8711;DHT22;4392;47.400;8.062;2022-10-16T12:07:41;18.90;99.90
8711;DHT22;4392;47.400;8.062;2022-10-16T12:10:24;18.90;99.90
8711;DHT22;4392;47.400;8.062;2022-10-16T12:12:55;19.00;99.90
8711;DHT22;4392;47.400;8.062;2022-10-16T12:15:28;19.00;99.90
8711;DHT22;4392;47.400;8.062;2022-10-16T12:17:54;19.00;99.90
8711;DHT22;4392;47.400;8.062;2022-10-16T12:30:34;19.20;99.90
8711;DHT22;4392;47.400;8.062;2022-10-16T12:33:23;19.30;99.90
8711;DHT22;4392;47.400;8.062;2022-10-16T12:35:50;19.60;99.90
8711;DHT22;4392;47.400;8.062;2022-10-16T12:40:58;19.60;99.90
8711;DHT22;4392;47.400;8.062;2022-10-16T12:43:26;19.60;99.90
8711;DHT22;4392;47.400;8.062;2022-10-16T12:46:03;19.60;99.90
8711;DHT22;4392;47.400;8.062;2022-10-16T12:48:30;19.60;99.90
8711;DHT22;4392;47.400;8.062;2022-10-16T12:50:56;19.80;99.90
8711;DHT22;4392;47.400;8.062;2022-10-16T12:53:26;19.80;99.40
8711;DHT22;4392;47.400;8.062;2022-10-16T12:56:24;19.80;98.60
8711;DHT22;4392;47.400;8.062;2022-10-16T13:06:56;20.00;97.50
8711;DHT22;4392;47.400;8.062;2022-10-16T13:22:49;20.50;95.80
8711;DHT22;4392;47.400;8.062;2022-10-16T13:28:16;20.50;95.20
8711;DHT22;4392;47.400;8.062;2022-10-16T13:30:51;20.80;94.70
8711;DHT22;4392;47.400;8.062;2022-10-16T13:35:51;21.00;94.00
8711;DHT22;4392;47.400;8.062;2022-10-16T13:38:22;20.90;93.90
8711;DHT22;4392;47.400;8.062;2022-10-16T13:43:26;20.90;92.70
8711;DHT22;4392;47.400;8.062;2022-10-16T13:48:26;20.90;93.00
8711;DHT22;4392;47.400;8.062;2022-10-16T13:51:17;20.90;92.80
8711;DHT22;4392;47.400;8.062;2022-10-16T13:53:45;21.00;95.70
8711;DHT22;4392;47.400;8.062;2022-10-16T13:56:16;21.10;93.60
8711;DHT22;4392;47.400;8.062;2022-10-16T13:59:32;21.30;94.80
8711;DHT22;4392;47.400;8.062;2022-10-16T14:02:09;21.30;94.80
8711;DHT22;4392;47.400;8.062;2022-10-16T14:04:39;21.30;94.10
8711;DHT22;4392;47.400;8.062;2022-10-16T14:07:05;21.50;93.60
8711;DHT22;4392;47.400;8.062;2022-10-16T14:09:38;21.60;91.40
8711;DHT22;4392;47.400;8.062;2022-10-16T14:12:10;21.70;92.40
8711;DHT22;4392;47.400;8.062;2022-10-16T14:14:55;21.70;89.40
8711;DHT22;4392;47.400;8.062;2022-10-16T14:17:34;21.70;91.30
8711;DHT22;4392;47.400;8.062;2022-10-16T14:20:03;21.60;91.80
8711;DHT22;4392;47.400;8.062;2022-10-16T14:22:37;21.50;92.50
8711;DHT22;4392;47.400;8.062;2022-10-16T14:30:55;21.90;92.30
8711;DHT22;4392;47.400;8.062;2022-10-16T14:33:25;22.10;91.60
8711;DHT22;4392;47.400;8.062;2022-10-16T14:36:12;22.10;91.30
8711;DHT22;4392;47.400;8.062;2022-10-16T14:38:40;22.10;90.40
8711;DHT22;4392;47.400;8.062;2022-10-16T14:41:07;22.10;90.00
8711;DHT22;4392;47.400;8.062;2022-10-16T14:46:19;22.40;90.00
8711;DHT22;4392;47.400;8.062;2022-10-16T14:48:51;22.60;88.30
8711;DHT22;4392;47.400;8.062;2022-10-16T14:51:19;22.80;87.30
8711;DHT22;4392;47.400;8.062;2022-10-16T14:53:46;23.00;85.20
8711;DHT22;4392;47.400;8.062;2022-10-16T14:56:24;22.80;86.30
8711;DHT22;4392;47.400;8.062;2022-10-16T14:58:51;22.80;86.00
8711;DHT22;4392;47.400;8.062;2022-10-16T15:01:21;22.70;84.90
8711;DHT22;4392;47.400;8.062;2022-10-16T15:03:47;22.70;84.70
8711;DHT22;4392;47.400;8.062;2022-10-16T15:06:14;22.70;86.20
8711;DHT22;4392;47.400;8.062;2022-10-16T15:08:43;22.70;85.60
8711;DHT22;4392;47.400;8.062;2022-10-16T15:11:16;22.70;85.60
8711;DHT22;4392;47.400;8.062;2022-10-16T15:13:42;22.60;85.20
8711;DHT22;4392;47.400;8.062;2022-10-16T15:16:13;22.50;86.20
8711;DHT22;4392;47.400;8.062;2022-10-16T15:18:40;22.30;86.60
8711;DHT22;4392;47.400;8.062;2022-10-16T15:21:07;22.30;86.80
8711;DHT22;4392;47.400;8.062;2022-10-16T15:23:33;22.30;85.90
8711;DHT22;4392;47.400;8.062;2022-10-16T15:25:58;22.20;86.60
8711;DHT22;4392;47.400;8.062;2022-10-16T15:28:25;22.20;85.70
8711;DHT22;4392;47.400;8.062;2022-10-16T15:30:53;22.40;85.20
8711;DHT22;4392;47.400;8.062;2022-10-16T15:33:25;22.50;84.00
8711;DHT22;4392;47.400;8.062;2022-10-16T15:35:54;22.70;82.50
8711;DHT22;4392;47.400;8.062;2022-10-16T15:38:21;22.80;83.80
8711;DHT22;4392;47.400;8.062;2022-10-16T15:40:48;22.70;82.90
8711;DHT22;4392;47.400;8.062;2022-10-16T15:43:14;22.70;83.20
8711;DHT22;4392;47.400;8.062;2022-10-16T15:45:40;22.70;84.30
8711;DHT22;4392;47.400;8.062;2022-10-16T15:48:11;22.60;84.20
8711;DHT22;4392;47.400;8.062;2022-10-16T15:50:38;22.50;83.70
8711;DHT22;4392;47.400;8.062;2022-10-16T15:53:05;22.50;83.60
8711;DHT22;4392;47.400;8.062;2022-10-16T15:55:31;22.50;84.00
8711;DHT22;4392;47.400;8.062;2022-10-16T15:57:56;22.40;85.20
8711;DHT22;4392;47.400;8.062;2022-10-16T16:00:22;22.30;87.70
8711;DHT22;4392;47.400;8.062;2022-10-16T16:02:52;22.20;89.10
8711;DHT22;4392;47.400;8.062;2022-10-16T16:05:19;22.20;90.30
8711;DHT22;4392;47.400;8.062;2022-10-16T16:07:46;22.20;88.70
8711;DHT22;4392;47.400;8.062;2022-10-16T16:10:12;22.10;90.50
8711;DHT22;4392;47.400;8.062;2022-10-16T16:12:38;22.10;91.20
8711;DHT22;4392;47.400;8.062;2022-10-16T16:15:06;22.00;91.10
8711;DHT22;4392;47.400;8.062;2022-10-16T16:17:34;22.00;90.00
8711;DHT22;4392;47.400;8.062;2022-10-16T16:20:00;22.00;88.80
8711;DHT22;4392;47.400;8.062;2022-10-16T16:22:26;22.00;91.00
8711;DHT22;4392;47.400;8.062;2022-10-16T16:24:52;22.00;92.20
8711;DHT22;4392;47.400;8.062;2022-10-16T16:27:19;21.90;91.10
8711;DHT22;4392;47.400;8.062;2022-10-16T16:29:46;21.80;92.90
8711;DHT22;4392;47.400;8.062;2022-10-16T16:32:12;21.80;93.70
8711;DHT22;4392;47.400;8.062;2022-10-16T16:34:38;21.80;94.00
8711;DHT22;4392;47.400;8.062;2022-10-16T16:37:04;21.70;94.20
8711;DHT22;4392;47.400;8.062;2022-10-16T16:39:30;21.70;94.60
8711;DHT22;4392;47.400;8.062;2022-10-16T16:41:57;21.70;95.10
8711;DHT22;4392;47.400;8.062;2022-10-16T16:44:24;21.60;95.50
8711;DHT22;4392;47.400;8.062;2022-10-16T16:46:51;21.60;96.10
8711;DHT22;4392;47.400;8.062;2022-10-16T16:49:17;21.60;96.10
8711;DHT22;4392;47.400;8.062;2022-10-16T16:51:43;21.60;97.00
8711;DHT22;4392;47.400;8.062;2022-10-16T16:54:10;21.50;97.10
8711;DHT22;4392;47.400;8.062;2022-10-16T16:56:40;21.40;97.70
8711;DHT22;4392;47.400;8.062;2022-10-16T16:59:17;21.40;98.50
8711;DHT22;4392;47.400;8.062;2022-10-16T17:01:45;21.40;99.30
8711;DHT22;4392;47.400;8.062;2022-10-16T17:04:11;21.30;99.90
8711;DHT22;4392;47.400;8.062;2022-10-16T17:06:37;21.30;99.90
8711;DHT22;4392;47.400;8.062;2022-10-16T17:09:05;21.20;99.90
8711;DHT22;4392;47.400;8.062;2022-10-16T17:11:32;21.20;99.90
8711;DHT22;4392;47.400;8.062;2022-10-16T17:13:59;21.20;99.90
8711;DHT22;4392;47.400;8.062;2022-10-16T17:16:29;21.10;99.90
8711;DHT22;4392;47.400;8.062;2022-10-16T17:19:06;21.00;99.90
8711;DHT22;4392;47.400;8.062;2022-10-16T17:21:33;21.10;99.90
8711;DHT22;4392;47.400;8.062;2022-10-16T17:24:00;21.20;99.90
8711;DHT22;4392;47.400;8.062;2022-10-16T17:26:26;21.20;99.90
8711;DHT22;4392;47.400;8.062;2022-10-16T17:28:54;21.10;99.90
8711;DHT22;4392;47.400;8.062;2022-10-16T17:31:29;21.10;99.90
8711;DHT22;4392;47.400;8.062;2022-10-16T17:33:56;21.00;99.90
8711;DHT22;4392;47.400;8.062;2022-10-16T17:36:22;20.90;99.90
8711;DHT22;4392;47.400;8.062;2022-10-16T17:38:49;20.90;99.90
8711;DHT22;4392;47.400;8.062;2022-10-16T17:41:24;20.80;99.90
8711;DHT22;4392;47.400;8.062;2022-10-16T17:43:51;20.80;99.90
8711;DHT22;4392;47.400;8.062;2022-10-16T17:46:18;20.80;99.90
8711;DHT22;4392;47.400;8.062;2022-10-16T17:48:47;20.80;99.90
8711;DHT22;4392;47.400;8.062;2022-10-16T17:51:15;20.70;99.90
8711;DHT22;4392;47.400;8.062;2022-10-16T17:53:42;20.70;99.90
8711;DHT22;4392;47.400;8.062;2022-10-16T17:56:16;20.60;99.90
8711;DHT22;4392;47.400;8.062;2022-10-16T17:58:41;20.60;99.90
8711;DHT22;4392;47.400;8.062;2022-10-16T18:01:26;20.50;99.90
8711;DHT22;4392;47.400;8.062;2022-10-16T18:03:59;20.40;99.90
8711;DHT22;4392;47.400;8.062;2022-10-16T18:06:25;20.40;99.90
8711;DHT22;4392;47.400;8.062;2022-10-16T18:08:52;20.40;99.90
8711;DHT22;4392;47.400;8.062;2022-10-16T18:11:19;20.40;99.90
8711;DHT22;4392;47.400;8.062;2022-10-16T18:13:49;20.30;99.90
8711;DHT22;4392;47.400;8.062;2022-10-16T18:16:16;20.30;99.90
8711;DHT22;4392;47.400;8.062;2022-10-16T18:18:43;20.30;99.90
8711;DHT22;4392;47.400;8.062;2022-10-16T18:21:14;20.30;99.90
8711;DHT22;4392;47.400;8.062;2022-10-16T18:23:41;20.30;99.90
8711;DHT22;4392;47.400;8.062;2022-10-16T18:26:09;20.30;99.90
8711;DHT22;4392;47.400;8.062;2022-10-16T18:28:35;20.30;99.90
8711;DHT22;4392;47.400;8.062;2022-10-16T18:31:07;20.30;99.90
8711;DHT22;4392;47.400;8.062;2022-10-16T18:33:36;20.30;99.90
8711;DHT22;4392;47.400;8.062;2022-10-16T18:36:04;20.30;99.90
8711;DHT22;4392;47.400;8.062;2022-10-16T18:38:34;20.30;99.90
8711;DHT22;4392;47.400;8.062;2022-10-16T18:41:03;20.20;99.90
8711;DHT22;4392;47.400;8.062;2022-10-16T18:43:36;20.20;99.90
8711;DHT22;4392;47.400;8.062;2022-10-16T18:46:14;20.20;99.90
8711;DHT22;4392;47.400;8.062;2022-10-16T18:48:41;20.20;99.90
8711;DHT22;4392;47.400;8.062;2022-10-16T18:51:11;20.20;99.90
8711;DHT22;4392;47.400;8.062;2022-10-16T18:53:40;20.20;99.90